createdAt,value
2023-03-02T00:00:36.795Z,0.31
2023-03-02T00:03:04.607Z,0.23
2023-03-02T00:05:31.628Z,0.14
2023-03-02T00:07:58.951Z,0.18
2023-03-02T00:10:25.613Z,0.12
2023-03-02T00:12:52.236Z,0.04
2023-03-02T00:15:18.586Z,0.01
2023-03-02T00:17:44.918Z,0.03
2023-03-02T00:20:12.003Z,-0.03
2023-03-02T00:22:39.372Z,0.02
2023-03-02T00:25:06.026Z,-0.05
2023-03-02T00:27:32.316Z,-0.02
2023-03-02T00:29:58.674Z,-0.16
2023-03-02T00:32:25.501Z,-0.04
2023-03-02T00:34:52.258Z,-0.20
2023-03-02T00:37:18.859Z,-0.08
2023-03-02T00:39:45.226Z,-0.07
2023-03-02T00:42:11.546Z,-0.05
2023-03-02T00:44:37.898Z,0.22
2023-03-02T00:47:04.266Z,0.05
2023-03-02T00:49:30.629Z,0.12
2023-03-02T00:51:57.035Z,-0.09
2023-03-02T00:54:23.562Z,0.01
2023-03-02T00:56:49.851Z,-0.09
2023-03-02T00:59:28.409Z,-0.17
2023-03-02T01:01:57.735Z,-0.22
2023-03-02T01:04:25.382Z,-0.06
2023-03-02T01:06:51.738Z,-0.27
2023-03-02T01:09:18.073Z,-0.27
2023-03-02T01:11:44.420Z,-0.00
2023-03-02T01:14:10.735Z,-0.06
2023-03-02T01:16:37.409Z,0.02
2023-03-02T01:19:03.818Z,0.05
2023-03-02T01:21:30.299Z,-0.08
2023-03-02T01:23:56.583Z,-0.28
2023-03-02T01:26:23.004Z,-0.40
2023-03-02T01:28:50.130Z,-0.29
2023-03-02T01:31:17.296Z,-0.37
2023-03-02T01:33:43.633Z,-0.20
2023-03-02T01:36:09.989Z,-0.35
2023-03-02T01:38:36.277Z,-0.43
2023-03-02T01:41:02.686Z,-0.23
2023-03-02T01:43:29.344Z,-0.49
2023-03-02T01:45:57.627Z,-0.38
2023-03-02T01:48:35.123Z,-0.07
2023-03-02T01:51:02.368Z,-0.27
2023-03-02T01:53:31.247Z,0.07
2023-03-02T01:55:59.143Z,-0.13
2023-03-02T01:58:25.745Z,-0.19
2023-03-02T02:00:53.026Z,-0.04
2023-03-02T02:03:24.940Z,0.18
2023-03-02T02:05:59.568Z,-0.03
2023-03-02T02:08:26.016Z,-0.04
2023-03-02T02:10:53.303Z,0.04
2023-03-02T02:13:19.616Z,0.02
2023-03-02T02:15:46.199Z,0.18
2023-03-02T02:18:12.485Z,0.26
2023-03-02T02:20:46.834Z,0.09
2023-03-02T02:23:26.487Z,0.19
2023-03-02T02:25:55.897Z,0.28
2023-03-02T02:28:27.818Z,0.00
2023-03-02T02:31:04.484Z,-0.61
2023-03-02T02:33:32.196Z,-0.16
2023-03-02T02:36:03.297Z,-0.20
2023-03-02T02:38:30.474Z,-0.45
2023-03-02T02:41:01.394Z,-0.71
2023-03-02T02:43:28.737Z,-0.54
2023-03-02T02:45:56.997Z,-0.67
2023-03-02T02:48:24.506Z,-0.80
2023-03-02T02:51:00.293Z,-0.91
2023-03-02T02:53:29.546Z,-0.90
2023-03-02T02:55:57.680Z,-0.79
2023-03-02T02:58:29.883Z,-0.58
2023-03-02T03:00:56.296Z,-0.85
2023-03-02T03:03:30.876Z,-0.83
2023-03-02T03:06:02.359Z,-0.81
2023-03-02T03:08:43.879Z,-0.69
2023-03-02T03:11:11.588Z,-0.99
2023-03-02T03:13:38.673Z,-1.16
2023-03-02T03:16:05.809Z,-1.06
2023-03-02T03:18:32.100Z,-0.98
2023-03-02T03:20:58.397Z,-0.36
2023-03-02T03:23:24.725Z,-0.53
2023-03-02T03:25:51.037Z,-0.37
2023-03-02T03:28:18.093Z,-0.50
2023-03-02T03:30:44.923Z,-0.68
2023-03-02T03:33:14.265Z,-0.44
2023-03-02T03:35:40.600Z,-0.15
2023-03-02T03:38:08.012Z,-0.41
2023-03-02T03:40:34.492Z,-0.09
2023-03-02T03:43:01.379Z,-0.26
2023-03-02T03:45:30.275Z,-0.24
2023-03-02T03:47:56.907Z,-0.04
2023-03-02T03:50:23.478Z,-0.13
2023-03-02T03:52:49.940Z,-0.10
2023-03-02T03:55:16.921Z,0.06
2023-03-02T03:57:43.231Z,-0.38
2023-03-02T04:00:11.225Z,-0.54
2023-03-02T04:02:37.741Z,-0.11
2023-03-02T04:05:07.513Z,0.01
2023-03-02T04:07:33.993Z,0.07
2023-03-02T04:10:06.091Z,-0.15
2023-03-02T04:12:33.704Z,-0.33
2023-03-02T04:15:00.007Z,-0.35
2023-03-02T04:17:26.648Z,-0.38
2023-03-02T04:19:53.157Z,-0.18
2023-03-02T04:22:20.004Z,-0.34
2023-03-02T04:24:46.770Z,-0.10
2023-03-02T04:27:13.532Z,-0.32
2023-03-02T04:29:40.504Z,-0.02
2023-03-02T04:32:07.561Z,-0.23
2023-03-02T04:34:34.174Z,0.04
2023-03-02T04:37:00.876Z,-0.01
2023-03-02T04:39:27.266Z,-0.37
2023-03-02T04:41:54.781Z,-0.31
2023-03-02T04:44:21.160Z,-0.19
2023-03-02T04:46:47.983Z,-0.09
2023-03-02T04:49:14.928Z,-0.10
2023-03-02T04:51:42.632Z,-0.20
2023-03-02T04:54:13.234Z,-0.39
2023-03-02T04:56:39.556Z,-0.16
2023-03-02T04:59:05.887Z,-0.11
2023-03-02T05:01:32.372Z,0.01
2023-03-02T05:03:59.286Z,-0.31
2023-03-02T05:06:26.563Z,-0.33
2023-03-02T05:08:53.525Z,-0.22
2023-03-02T05:11:23.216Z,-0.18
2023-03-02T05:13:50.561Z,-0.45
2023-03-02T05:16:16.936Z,-0.26
2023-03-02T05:18:43.424Z,-0.28
2023-03-02T05:21:10.204Z,-0.64
2023-03-02T05:23:36.540Z,-0.79
2023-03-02T05:26:02.912Z,-0.56
2023-03-02T05:28:29.259Z,-0.60
2023-03-02T05:30:55.605Z,-0.39
2023-03-02T05:33:21.983Z,-0.23
2023-03-02T05:35:48.481Z,-0.50
2023-03-02T05:38:15.049Z,-0.28
2023-03-02T05:40:44.561Z,-0.38
2023-03-02T05:43:14.644Z,-0.72
2023-03-02T05:45:40.953Z,-0.44
2023-03-02T05:48:07.616Z,-0.47
2023-03-02T05:50:34.263Z,-0.26
2023-03-02T05:53:02.389Z,-0.14
2023-03-02T05:55:28.768Z,-0.22
2023-03-02T05:57:55.167Z,-0.25
2023-03-02T06:00:21.648Z,0.03
2023-03-02T06:02:48.019Z,-0.21
2023-03-02T06:05:16.512Z,-0.32
2023-03-02T06:07:42.953Z,-0.74
2023-03-02T06:10:10.326Z,-0.69
2023-03-02T06:12:36.712Z,-0.64
2023-03-02T06:15:04.249Z,-0.63
2023-03-02T06:17:30.659Z,-0.28
2023-03-02T06:19:57.073Z,-0.09
2023-03-02T06:22:23.391Z,-0.17
2023-03-02T06:24:49.736Z,-0.46
2023-03-02T06:27:16.018Z,-0.67
2023-03-02T06:29:42.332Z,-0.18
2023-03-02T06:32:10.419Z,-0.84
2023-03-02T06:34:36.889Z,-0.64
2023-03-02T06:37:03.260Z,-0.30
2023-03-02T06:39:30.100Z,-0.05
2023-03-02T06:41:56.507Z,-0.56
2023-03-02T06:44:22.856Z,-0.16
2023-03-02T06:46:49.246Z,-0.24
2023-03-02T06:49:15.600Z,-0.19
2023-03-02T06:51:41.864Z,-0.30
2023-03-02T06:54:08.284Z,-0.07
2023-03-02T06:56:34.957Z,-0.33
2023-03-02T06:59:01.457Z,-0.24
2023-03-02T07:01:32.726Z,-0.30
2023-03-02T07:03:59.443Z,-0.40
2023-03-02T07:06:25.748Z,-0.44
2023-03-02T07:08:52.138Z,-0.65
2023-03-02T07:11:18.445Z,-0.89
2023-03-02T07:13:44.740Z,-1.10
2023-03-02T07:16:11.879Z,-1.07
2023-03-02T07:18:38.660Z,-0.34
2023-03-02T07:21:05.156Z,-0.48
2023-03-02T07:23:31.528Z,-0.57
2023-03-02T07:25:57.887Z,-0.03
2023-03-02T07:28:25.222Z,-0.11
2023-03-02T07:30:53.285Z,0.09
2023-03-02T07:33:20.404Z,0.02
2023-03-02T07:35:46.738Z,-0.43
2023-03-02T07:38:13.182Z,-0.18
2023-03-02T07:40:42.895Z,-0.17
2023-03-02T07:43:09.824Z,-0.05
2023-03-02T07:45:37.250Z,-0.27
2023-03-02T07:48:03.794Z,-0.53
2023-03-02T07:50:30.439Z,-0.26
2023-03-02T07:52:58.594Z,-0.28
2023-03-02T07:55:26.210Z,-0.01
2023-03-02T07:57:52.591Z,-0.28
2023-03-02T08:00:19.253Z,-0.08
2023-03-02T08:02:45.652Z,0.12
2023-03-02T08:05:12.395Z,0.12
2023-03-02T08:07:39.832Z,0.12
2023-03-02T08:10:06.693Z,0.53
2023-03-02T08:12:33.009Z,-0.07
2023-03-02T08:14:59.355Z,-0.13
2023-03-02T08:17:25.667Z,-0.37
2023-03-02T08:19:52.005Z,-0.42
2023-03-02T08:22:18.323Z,-0.28
2023-03-02T08:24:44.635Z,-0.06
2023-03-02T08:27:15.297Z,0.22
2023-03-02T08:29:41.644Z,0.24
2023-03-02T08:32:08.115Z,0.30
2023-03-02T08:34:34.440Z,0.45
2023-03-02T08:37:00.759Z,0.24
2023-03-02T08:39:30.181Z,0.27
2023-03-02T08:41:56.765Z,0.43
2023-03-02T08:44:23.251Z,0.78
2023-03-02T08:46:49.834Z,0.75
2023-03-02T08:49:16.436Z,0.57
2023-03-02T08:51:42.859Z,0.67
2023-03-02T08:54:09.914Z,0.85
2023-03-02T08:56:37.213Z,0.75
2023-03-02T08:59:09.583Z,0.70
2023-03-02T09:01:37.449Z,0.47
2023-03-02T09:04:04.930Z,0.87
2023-03-02T09:06:33.874Z,0.89
2023-03-02T09:09:00.186Z,1.00
2023-03-02T09:11:27.128Z,0.86
2023-03-02T09:13:54.520Z,0.72
2023-03-02T09:16:20.982Z,0.94
2023-03-02T09:18:47.744Z,0.68
2023-03-02T09:21:14.118Z,0.40
2023-03-02T09:23:40.695Z,0.69
2023-03-02T09:26:07.057Z,0.28
2023-03-02T09:28:33.667Z,0.62
2023-03-02T09:31:01.616Z,0.16
2023-03-02T09:33:29.103Z,0.31
2023-03-02T09:35:55.592Z,0.27
2023-03-02T09:38:22.131Z,0.36
2023-03-02T09:41:04.777Z,0.45
2023-03-02T09:43:38.934Z,0.91
2023-03-02T09:46:14.270Z,0.64
2023-03-02T09:48:45.820Z,0.65
2023-03-02T09:51:20.822Z,0.49
2023-03-02T09:53:53.034Z,0.73
2023-03-02T09:56:20.032Z,1.02
2023-03-02T09:59:05.016Z,1.23
2023-03-02T10:01:39.165Z,1.09
2023-03-02T10:04:11.209Z,1.29
2023-03-02T10:06:37.593Z,1.03
2023-03-02T10:09:03.892Z,1.17
2023-03-02T10:11:30.302Z,1.54
2023-03-02T10:14:02.587Z,1.31
2023-03-02T10:16:38.444Z,1.26
2023-03-02T10:19:07.979Z,1.05
2023-03-02T10:21:46.001Z,1.51
2023-03-02T10:24:16.477Z,1.12
2023-03-02T10:26:44.319Z,1.42
2023-03-02T10:29:10.648Z,1.71
2023-03-02T10:31:38.901Z,1.91
2023-03-02T10:34:05.254Z,1.77
2023-03-02T10:36:37.468Z,1.71
2023-03-02T10:39:06.836Z,1.21
2023-03-02T10:41:36.105Z,1.66
2023-03-02T10:44:05.685Z,1.95
2023-03-02T10:46:42.084Z,2.17
2023-03-02T10:49:25.346Z,2.15
2023-03-02T10:51:56.023Z,2.15
2023-03-02T10:54:22.324Z,1.96
2023-03-02T10:56:50.693Z,1.75
2023-03-02T10:59:28.887Z,2.11
2023-03-02T11:02:15.128Z,2.21
2023-03-02T11:04:41.706Z,2.20
2023-03-02T11:07:15.348Z,2.14
2023-03-02T11:09:41.657Z,2.43
2023-03-02T11:12:17.725Z,2.51
2023-03-02T11:14:44.113Z,2.25
2023-03-02T11:17:31.358Z,2.28
2023-03-02T11:19:57.770Z,2.44
2023-03-02T11:22:40.937Z,2.36
2023-03-02T11:25:12.516Z,2.59
2023-03-02T11:27:41.393Z,2.47
2023-03-02T11:30:07.886Z,2.19
2023-03-02T11:32:36.785Z,2.20
2023-03-02T11:35:03.133Z,2.30
2023-03-02T11:37:49.665Z,2.44
2023-03-02T11:40:26.344Z,2.42
2023-03-02T11:42:54.758Z,2.40
2023-03-02T11:45:27.211Z,2.56
2023-03-02T11:48:04.129Z,2.50
2023-03-02T11:50:32.651Z,2.71
2023-03-02T11:53:01.307Z,2.44
2023-03-02T11:55:29.084Z,2.46
2023-03-02T11:57:57.774Z,2.10
2023-03-02T12:00:26.891Z,2.52
2023-03-02T12:03:19.616Z,2.10
2023-03-02T12:05:58.301Z,2.51
2023-03-02T12:08:24.668Z,2.34
2023-03-02T12:10:57.222Z,2.33
2023-03-02T12:13:28.728Z,2.42
2023-03-02T12:15:57.988Z,2.42
2023-03-02T12:18:24.756Z,2.75
2023-03-02T12:21:03.373Z,2.80
2023-03-02T12:23:30.476Z,2.48
2023-03-02T12:26:02.712Z,2.80
2023-03-02T12:28:37.278Z,2.75
2023-03-02T12:31:13.664Z,2.59
2023-03-02T12:33:48.084Z,2.67
2023-03-02T12:36:34.882Z,2.75
2023-03-02T12:39:10.278Z,2.40
2023-03-02T12:41:56.813Z,2.68
2023-03-02T12:44:47.624Z,2.86
2023-03-02T12:47:26.086Z,2.66
2023-03-02T12:49:52.623Z,2.88
2023-03-02T12:52:23.880Z,2.37
2023-03-02T12:54:59.228Z,2.64
2023-03-02T12:57:25.514Z,2.76
2023-03-02T12:59:53.371Z,2.37
2023-03-02T13:02:21.421Z,2.50
2023-03-02T13:05:02.430Z,2.77
2023-03-02T13:07:36.300Z,2.63
2023-03-02T13:10:04.450Z,2.81
2023-03-02T13:12:31.032Z,2.56
2023-03-02T13:14:58.800Z,2.53
2023-03-02T13:17:30.753Z,2.77
2023-03-02T13:19:58.487Z,2.79
2023-03-02T13:22:25.272Z,2.71
2023-03-02T13:24:56.275Z,2.67
2023-03-02T13:27:23.319Z,2.66
2023-03-02T13:29:50.088Z,2.44
2023-03-02T13:32:19.632Z,2.39
2023-03-02T13:34:50.853Z,2.47
2023-03-02T13:37:19.632Z,2.19
2023-03-02T13:39:54.173Z,2.45
2023-03-02T13:42:25.614Z,2.24
2023-03-02T13:44:52.048Z,2.51
2023-03-02T13:47:23.169Z,2.53
2023-03-02T13:49:49.560Z,2.64
2023-03-02T13:52:15.893Z,2.69
2023-03-02T13:54:43.924Z,2.52
2023-03-02T13:57:18.904Z,2.19
2023-03-02T13:59:45.322Z,2.70
2023-03-02T14:02:19.862Z,2.36
2023-03-02T14:04:46.291Z,2.27
2023-03-02T14:07:12.648Z,2.39
2023-03-02T14:09:38.962Z,2.56
2023-03-02T14:12:05.608Z,2.65
2023-03-02T14:14:35.153Z,2.70
2023-03-02T14:17:01.546Z,2.53
2023-03-02T14:19:27.944Z,2.66
2023-03-02T14:21:54.331Z,2.76
2023-03-02T14:24:20.736Z,2.65
2023-03-02T14:26:48.806Z,2.22
2023-03-02T14:29:29.280Z,1.81
2023-03-02T14:31:56.700Z,1.93
2023-03-02T14:34:23.521Z,2.35
2023-03-02T14:36:51.899Z,2.46
2023-03-02T14:39:31.009Z,2.46
2023-03-02T14:41:57.555Z,2.47
2023-03-02T14:44:24.021Z,2.29
2023-03-02T14:46:50.629Z,2.29
2023-03-02T14:49:17.049Z,2.08
2023-03-02T14:51:44.973Z,2.20
2023-03-02T14:54:14.757Z,2.15
2023-03-02T14:56:42.696Z,2.10
2023-03-02T14:59:12.227Z,2.23
2023-03-02T15:01:39.418Z,2.35
2023-03-02T15:04:05.820Z,2.39
2023-03-02T15:06:34.871Z,2.52
2023-03-02T15:09:01.542Z,2.44
2023-03-02T15:11:28.022Z,2.13
2023-03-02T15:13:54.604Z,2.23
2023-03-02T15:16:21.627Z,2.24
2023-03-02T15:18:52.004Z,2.38
2023-03-02T15:21:20.019Z,2.13
2023-03-02T15:23:46.666Z,2.31
2023-03-02T15:26:13.698Z,1.83
2023-03-02T15:28:40.414Z,2.02
2023-03-02T15:31:10.462Z,1.97
2023-03-02T15:33:37.229Z,1.86
2023-03-02T15:36:06.198Z,2.07
2023-03-02T15:38:33.528Z,1.87
2023-03-02T15:41:03.821Z,1.95
2023-03-02T15:43:30.104Z,1.95
2023-03-02T15:45:56.838Z,1.76
2023-03-02T15:48:23.126Z,1.75
2023-03-02T15:51:03.009Z,1.75
2023-03-02T15:53:29.799Z,1.83
2023-03-02T15:55:56.390Z,1.79
2023-03-02T15:58:23.200Z,1.96
2023-03-02T16:00:50.002Z,1.72
2023-03-02T16:03:16.817Z,1.85
2023-03-02T16:05:43.231Z,1.89
2023-03-02T16:08:09.584Z,1.79
2023-03-02T16:10:36.731Z,1.81
2023-03-02T16:13:04.038Z,1.40
2023-03-02T16:15:30.397Z,1.66
2023-03-02T16:17:56.722Z,1.35
2023-03-02T16:20:23.157Z,1.35
2023-03-02T16:22:49.447Z,1.65
2023-03-02T16:25:15.848Z,1.71
2023-03-02T16:27:47.032Z,1.21
2023-03-02T16:30:15.519Z,1.29
2023-03-02T16:32:42.023Z,1.71
2023-03-02T16:35:09.000Z,1.35
2023-03-02T16:37:35.437Z,1.51
2023-03-02T16:40:01.813Z,1.18
2023-03-02T16:42:30.292Z,1.50
2023-03-02T16:44:56.650Z,1.46
2023-03-02T16:47:23.007Z,1.21
2023-03-02T16:49:49.415Z,1.43
2023-03-02T16:52:17.586Z,1.46
2023-03-02T16:54:43.991Z,1.62
2023-03-02T16:57:10.445Z,1.66
2023-03-02T16:59:36.940Z,1.35
2023-03-02T17:02:03.354Z,1.27
2023-03-02T17:04:29.876Z,1.61
2023-03-02T17:07:00.724Z,1.50
2023-03-02T17:09:27.907Z,1.59
2023-03-02T17:11:54.269Z,1.62
2023-03-02T17:14:20.609Z,1.33
2023-03-02T17:16:46.918Z,1.53
2023-03-02T17:19:13.214Z,1.45
2023-03-02T17:21:39.568Z,1.19
2023-03-02T17:24:06.001Z,1.36
2023-03-02T17:26:32.402Z,0.93
2023-03-02T17:28:58.727Z,1.11
2023-03-02T17:31:25.120Z,0.74
2023-03-02T17:33:51.601Z,0.74
2023-03-02T17:36:17.931Z,0.83
2023-03-02T17:38:44.369Z,0.50
2023-03-02T17:41:11.654Z,0.91
2023-03-02T17:43:38.885Z,1.02
2023-03-02T17:46:16.751Z,0.90
2023-03-02T17:48:43.113Z,0.96
2023-03-02T17:51:11.612Z,0.85
2023-03-02T17:53:38.329Z,0.93
2023-03-02T17:56:04.749Z,0.98
2023-03-02T17:58:44.330Z,0.94
2023-03-02T18:01:11.565Z,1.06
2023-03-02T18:03:38.759Z,1.16
2023-03-02T18:06:05.458Z,0.87
2023-03-02T18:08:33.094Z,0.63
2023-03-02T18:10:59.951Z,0.85
2023-03-02T18:13:26.293Z,0.52
2023-03-02T18:15:52.622Z,0.35
2023-03-02T18:18:18.922Z,0.46
2023-03-02T18:20:45.321Z,0.85
2023-03-02T18:23:12.375Z,0.70
2023-03-02T18:25:38.761Z,0.74
2023-03-02T18:28:05.236Z,0.82
2023-03-02T18:30:31.565Z,0.85
2023-03-02T18:32:58.026Z,0.85
2023-03-02T18:35:24.417Z,1.01
2023-03-02T18:37:50.807Z,1.02
2023-03-02T18:40:17.234Z,0.99
2023-03-02T18:42:43.690Z,0.81
2023-03-02T18:45:10.353Z,0.99
2023-03-02T18:47:36.806Z,0.96
2023-03-02T18:50:03.948Z,1.00
2023-03-02T18:52:30.262Z,1.01
2023-03-02T18:54:57.759Z,0.97
2023-03-02T18:57:25.289Z,1.14
2023-03-02T18:59:51.661Z,0.89
2023-03-02T19:02:18.046Z,1.07
2023-03-02T19:04:44.383Z,0.95
2023-03-02T19:07:10.910Z,0.90
2023-03-02T19:09:37.204Z,0.62
2023-03-02T19:12:04.512Z,0.57
2023-03-02T19:14:30.895Z,1.05
2023-03-02T19:16:57.263Z,1.20
2023-03-02T19:19:23.634Z,1.26
2023-03-02T19:21:50.196Z,1.29
2023-03-02T19:24:16.586Z,1.23
2023-03-02T19:26:42.934Z,1.22
2023-03-02T19:29:09.284Z,1.05
2023-03-02T19:31:38.162Z,1.11
2023-03-02T19:34:05.383Z,1.12
2023-03-02T19:36:31.787Z,1.07
2023-03-02T19:38:58.173Z,1.05
2023-03-02T19:41:24.548Z,0.93
2023-03-02T19:43:51.486Z,0.42
2023-03-02T19:46:18.056Z,0.27
2023-03-02T19:48:44.512Z,0.50
2023-03-02T19:51:12.044Z,0.10
2023-03-02T19:53:39.033Z,0.26
2023-03-02T19:56:08.070Z,-0.24
2023-03-02T19:58:37.411Z,0.14
2023-03-02T20:01:04.054Z,0.45
2023-03-02T20:03:30.683Z,0.66
2023-03-02T20:05:58.822Z,-0.00
2023-03-02T20:08:25.384Z,0.02
2023-03-02T20:10:51.826Z,0.21
2023-03-02T20:13:18.215Z,-0.05
2023-03-02T20:15:46.126Z,0.04
2023-03-02T20:18:14.670Z,0.08
2023-03-02T20:20:42.088Z,0.51
2023-03-02T20:23:08.721Z,0.46
2023-03-02T20:25:36.365Z,0.44
2023-03-02T20:28:05.729Z,0.58
2023-03-02T20:30:37.317Z,0.61
2023-03-02T20:33:04.781Z,0.83
2023-03-02T20:35:32.645Z,0.87
2023-03-02T20:38:00.608Z,0.71
2023-03-02T20:40:27.920Z,0.46
2023-03-02T20:42:54.264Z,0.67
2023-03-02T20:45:20.747Z,0.38
2023-03-02T20:47:47.859Z,0.83
2023-03-02T20:50:16.044Z,0.81
2023-03-02T20:52:44.597Z,0.82
2023-03-02T20:55:11.679Z,0.83
2023-03-02T20:57:38.102Z,0.50
2023-03-02T21:00:06.891Z,0.57
2023-03-02T21:02:33.352Z,0.84
2023-03-02T21:05:00.234Z,0.59
2023-03-02T21:07:26.854Z,0.59
2023-03-02T21:09:53.201Z,0.67
2023-03-02T21:12:19.871Z,0.92
2023-03-02T21:14:46.236Z,0.83
2023-03-02T21:17:12.621Z,0.78
2023-03-02T21:19:39.156Z,0.76
2023-03-02T21:22:05.649Z,0.63
2023-03-02T21:24:31.974Z,0.62
2023-03-02T21:27:00.648Z,0.51
2023-03-02T21:29:27.102Z,0.59
2023-03-02T21:31:53.590Z,0.63
2023-03-02T21:34:20.370Z,0.55
2023-03-02T21:36:46.714Z,0.73
2023-03-02T21:39:13.526Z,0.86
2023-03-02T21:41:41.272Z,1.02
2023-03-02T21:44:07.742Z,1.00
2023-03-02T21:46:36.994Z,0.82
2023-03-02T21:49:03.857Z,1.10
2023-03-02T21:51:30.260Z,1.08
2023-03-02T21:53:56.804Z,0.86
2023-03-02T21:56:23.978Z,0.85
2023-03-02T21:58:51.045Z,0.93
2023-03-02T22:01:17.426Z,1.11
2023-03-02T22:03:44.795Z,0.88
2023-03-02T22:06:18.688Z,1.04
2023-03-02T22:08:45.047Z,0.70
2023-03-02T22:11:14.619Z,0.85
2023-03-02T22:13:42.385Z,0.91
2023-03-02T22:16:19.343Z,0.74
2023-03-02T22:18:47.049Z,0.81
2023-03-02T22:21:22.519Z,1.11
2023-03-02T22:23:48.882Z,1.20
2023-03-02T22:26:16.271Z,0.91
2023-03-02T22:28:43.071Z,1.02
2023-03-02T22:31:17.601Z,0.84
2023-03-02T22:33:43.975Z,1.11
2023-03-02T22:36:16.025Z,1.05
2023-03-02T22:38:42.350Z,0.93
2023-03-02T22:41:13.079Z,0.81
2023-03-02T22:43:39.441Z,1.00
2023-03-02T22:46:10.479Z,0.66
2023-03-02T22:48:37.643Z,1.03
2023-03-02T22:51:23.574Z,0.93
2023-03-02T22:53:57.349Z,0.86
2023-03-02T22:56:31.073Z,0.68
2023-03-02T22:59:01.110Z,0.86
2023-03-02T23:01:29.422Z,0.84
2023-03-02T23:04:07.913Z,0.81
2023-03-02T23:06:38.373Z,0.86
2023-03-02T23:09:05.968Z,1.03
2023-03-02T23:11:35.832Z,0.78
2023-03-02T23:14:02.551Z,0.82
2023-03-02T23:16:32.863Z,0.78
2023-03-02T23:18:59.325Z,0.65
2023-03-02T23:21:52.060Z,0.90
2023-03-02T23:24:21.986Z,0.83
2023-03-02T23:26:50.348Z,0.76
2023-03-02T23:29:17.079Z,0.76
2023-03-02T23:31:43.834Z,0.50
2023-03-02T23:34:11.049Z,0.83
2023-03-02T23:36:37.524Z,0.87
2023-03-02T23:39:07.619Z,0.78
2023-03-02T23:41:34.479Z,0.43
2023-03-02T23:44:00.845Z,0.51
2023-03-02T23:46:27.172Z,0.50
2023-03-02T23:48:55.883Z,0.24
2023-03-02T23:51:23.230Z,0.15
2023-03-02T23:53:49.537Z,0.49
2023-03-02T23:56:15.845Z,0.49
2023-03-02T23:58:42.335Z,0.47
